Time;durP1;ratioP1;P1;durP2;ratioP2;P2;SDS_P1;SDS_P2;PMS_P1;PMS_P2;Temp;Humidity;BMP_temperature;BMP_pressure;BME280_temperature;BME280_humidity;BME280_pressure;Samples;Min_cycle;Max_cycle;Signal;HPM_P1;HPM_P2
2022/05/02 00:00:14;;;;;;;13.17;7.93;;;;;;;-145.18;100.00;46761.97;5010148;28;20034;-70
2022/05/02 00:02:40;;;;;;;12.63;7.30;;;;;;;-145.18;100.00;46785.41;5010486;28;20069;-71
2022/05/02 00:05:07;;;;;;;11.53;7.80;;;;;;;-145.18;100.00;46758.06;4993979;28;20315;-70
2022/05/02 00:07:33;;;;;;;15.60;8.70;;;;;;;-145.18;100.00;46763.91;5011806;28;20041;-70
2022/05/02 00:09:58;;;;;;;15.60;7.97;;;;;;;-145.18;100.00;46756.09;5011314;28;20655;-70
2022/05/02 00:12:24;;;;;;;12.33;8.23;;;;;;;-145.18;100.00;46750.25;5011747;28;20063;-70
2022/05/02 00:14:49;;;;;;;13.50;7.87;;;;;;;-145.18;100.00;46777.59;4993313;28;20060;-70
2022/05/02 00:17:16;;;;;;;12.70;7.57;;;;;;;-145.18;100.00;46758.06;5011303;28;20026;-70
2022/05/02 00:19:41;;;;;;;10.67;7.90;;;;;;;-145.18;100.00;46771.75;5011291;28;20109;-70
2022/05/02 00:22:06;;;;;;;11.17;7.90;;;;;;;-145.18;100.00;46754.16;5011424;28;20362;-70
2022/05/02 00:24:32;;;;;;;11.60;7.80;;;;;;;-145.18;100.00;46732.66;5010999;28;20066;-70
2022/05/02 00:26:58;;;;;;;10.73;7.13;;;;;;;-145.18;100.00;46744.38;5010839;28;20041;-70
2022/05/02 00:29:24;;;;;;;11.00;7.00;;;;;;;-145.18;100.00;46742.44;5011184;28;20076;-70
2022/05/02 00:31:50;;;;;;;14.03;7.90;;;;;;;-145.18;100.00;46752.19;5010731;28;20065;-70
2022/05/02 00:34:15;;;;;;;10.20;7.53;;;;;;;-145.18;100.00;46736.56;5011110;28;20306;-70
2022/05/02 00:36:40;;;;;;;15.63;8.17;;;;;;;-145.18;100.00;46746.34;5010841;28;20122;-70
2022/05/02 00:39:06;;;;;;;11.43;8.23;;;;;;;-145.18;100.00;46719.00;5010944;28;20037;-70
2022/05/02 00:41:32;;;;;;;12.93;8.63;;;;;;;-145.18;100.00;46707.28;5010891;28;20038;-71
2022/05/02 00:43:58;;;;;;;13.40;8.50;;;;;;;-145.18;100.00;46750.25;5010754;28;20406;-70
2022/05/02 00:46:25;;;;;;;14.07;8.60;;;;;;;-145.18;100.00;46738.53;5011034;28;20125;-70
2022/05/02 00:48:55;;;;;;;16.10;8.07;;;;;;;-145.18;100.00;46732.66;4993224;28;20442;-70
2022/05/02 00:51:21;;;;;;;13.63;8.20;;;;;;;-145.18;100.00;46748.28;5010747;28;20803;-70
2022/05/02 00:53:51;;;;;;;14.27;8.60;;;;;;;-145.18;100.00;46719.00;4992810;28;20298;-70
2022/05/02 00:56:20;;;;;;;10.73;8.10;;;;;;;-145.18;100.00;46724.84;5010615;28;20270;-70
2022/05/02 00:58:47;;;;;;;15.87;8.70;;;;;;;-145.18;100.00;46738.53;5010551;28;20275;-71
2022/05/02 01:01:13;;;;;;;12.23;8.20;;;;;;;-145.18;100.00;46748.28;5010654;28;20263;-71
2022/05/02 01:03:38;;;;;;;9.97;7.40;;;;;;;-145.18;100.00;46715.09;5010299;28;20266;-71
2022/05/02 01:08:47;;;;;;;12.57;8.00;;;;;;;-145.18;100.00;46724.84;5010592;28;20506;-71
2022/05/02 01:11:14;;;;;;;14.07;9.87;;;;;;;-145.18;100.00;46707.28;5010399;28;20299;-71
2022/05/02 01:13:45;;;;;;;12.47;8.63;;;;;;;-145.18;100.00;46679.94;5009951;28;20462;-70
2022/05/02 01:16:15;;;;;;;10.73;7.73;;;;;;;-145.18;100.00;46672.13;5010495;28;20322;-71
2022/05/02 01:18:42;;;;;;;12.03;8.37;;;;;;;-145.18;100.00;46662.34;5010259;28;20317;-71
2022/05/02 01:21:16;;;;;;;13.47;8.57;;;;;;;-145.18;100.00;46650.63;5010326;28;20275;-71
2022/05/02 01:23:48;;;;;;;13.23;8.27;;;;;;;-145.18;100.00;46648.69;5009821;28;20260;-71
2022/05/02 01:26:13;;;;;;;10.30;8.03;;;;;;;-145.18;100.00;46656.50;5010408;28;20274;-71
2022/05/02 01:29:09;;;;;;;11.87;8.50;;;;;;;-145.18;100.00;46648.69;5009859;28;20361;-71
2022/05/02 01:31:34;;;;;;;13.23;8.67;;;;;;;-145.18;100.00;46656.50;4988772;28;20073;-71
2022/05/02 01:34:00;;;;;;;10.97;8.07;;;;;;;-145.18;100.00;46648.69;5010108;28;20354;-71
2022/05/02 01:36:25;;;;;;;13.47;9.17;;;;;;;-145.18;100.00;46658.44;5009633;28;20562;-71
2022/05/02 01:38:51;;;;;;;14.50;8.93;;;;;;;-145.18;100.00;46629.13;5009995;28;20034;-71
2022/05/02 01:41:17;;;;;;;17.10;9.87;;;;;;;-145.18;100.00;46625.22;5010211;28;20038;-71
2022/05/02 01:43:43;;;;;;;13.57;8.70;;;;;;;-145.18;100.00;46609.59;5009673;28;20061;-71
2022/05/02 01:46:11;;;;;;;13.60;9.53;;;;;;;-145.18;100.00;46617.41;5010082;28;20306;-70
2022/05/02 01:48:36;;;;;;;15.17;8.83;;;;;;;-145.18;100.00;46619.38;5009629;28;20042;-70
2022/05/02 01:51:02;;;;;;;13.47;9.40;;;;;;;-145.18;100.00;46638.91;4992687;28;20293;-70
2022/05/02 01:53:27;;;;;;;14.27;8.53;;;;;;;-145.18;100.00;46650.63;5009487;28;20038;-70
2022/05/02 01:55:53;;;;;;;15.53;9.77;;;;;;;-145.18;100.00;46615.47;5010026;28;20129;-70
2022/05/02 01:58:19;;;;;;;14.80;8.90;;;;;;;-145.18;100.00;46642.81;5009922;28;20030;-70
2022/05/02 02:03:19;;;;;;;13.75;9.55;;;;;;;-145.18;100.00;46652.59;5068178;23;20054;-70
2022/05/02 02:05:50;;;;;;;15.67;9.63;;;;;;;-145.18;100.00;46636.94;4996475;28;20509;-69
2022/05/02 02:08:28;;;;;;;16.17;9.17;;;;;;;-145.18;100.00;46640.88;4990049;28;20137;-70
2022/05/02 02:11:02;;;;;;;12.00;9.00;;;;;;;-145.18;100.00;46640.88;4990465;28;20311;-70
2022/05/02 02:13:28;;;;;;;15.33;9.30;;;;;;;-145.18;100.00;46635.00;4989839;28;20355;-70
2022/05/02 02:15:54;;;;;;;13.87;8.90;;;;;;;-145.18;100.00;46631.09;4989942;28;20826;-70
2022/05/02 02:18:20;;;;;;;13.03;8.97;;;;;;;-145.18;100.00;46636.94;4990227;28;20034;-70
2022/05/02 02:20:48;;;;;;;12.93;9.10;;;;;;;-145.18;100.00;46636.94;4990216;28;20283;-70
2022/05/02 02:23:15;;;;;;;16.40;9.43;;;;;;;-145.18;100.00;46638.91;4990114;28;20096;-70
2022/05/02 02:25:41;;;;;;;14.93;9.23;;;;;;;-145.18;100.00;46586.16;4990455;28;20284;-70
2022/05/02 02:28:07;;;;;;;13.70;9.50;;;;;;;-145.18;100.00;46631.09;4989955;28;20268;-70
2022/05/02 02:30:33;;;;;;;17.10;9.60;;;;;;;-145.18;100.00;46625.22;4990444;28;20349;-70
2022/05/02 02:32:59;;;;;;;12.07;8.93;;;;;;;-145.18;100.00;46627.19;4989740;28;20398;-70
2022/05/02 02:35:25;;;;;;;13.13;9.30;;;;;;;-145.18;100.00;46629.13;4990492;28;20490;-70
2022/05/02 02:37:51;;;;;;;14.87;10.40;;;;;;;-145.18;100.00;46631.09;4989689;28;20314;-70
2022/05/02 02:40:17;;;;;;;16.17;9.90;;;;;;;-145.18;100.00;46625.22;4990053;28;20359;-70
2022/05/02 02:42:43;;;;;;;15.37;10.37;;;;;;;-145.18;100.00;46625.22;4989964;28;20041;-70
2022/05/02 02:45:09;;;;;;;17.23;10.80;;;;;;;-145.18;100.00;46576.41;4990030;28;20272;-69
2022/05/02 02:47:34;;;;;;;15.47;10.23;;;;;;;-145.18;100.00;46572.50;4991522;28;20437;-69
2022/05/02 02:50:00;;;;;;;16.37;10.40;;;;;;;-145.18;100.00;46572.50;4993601;28;20045;-70
2022/05/02 02:52:25;;;;;;;14.83;10.53;;;;;;;-145.18;100.00;46570.53;4993388;28;20104;-70
2022/05/02 02:54:50;;;;;;;20.53;11.43;;;;;;;-145.18;100.00;46566.63;4993514;28;20030;-70
2022/05/02 02:57:16;;;;;;;16.87;10.10;;;;;;;-145.18;100.00;46566.63;4993177;28;20748;-70
2022/05/02 02:59:41;;;;;;;14.03;9.93;;;;;;;-145.18;100.00;46572.50;4993782;28;20398;-70
2022/05/02 03:02:07;;;;;;;18.13;10.33;;;;;;;-145.18;100.00;46574.44;4992652;28;20042;-69
2022/05/02 03:07:17;;;;;;;18.13;10.13;;;;;;;-145.18;100.00;46574.44;4993263;28;20521;-69
2022/05/02 03:09:43;;;;;;;15.70;10.13;;;;;;;-145.18;100.00;46564.69;4976435;28;20272;-69
2022/05/02 03:12:09;;;;;;;14.77;10.70;;;;;;;-145.18;100.00;46570.53;4992847;28;20176;-69
2022/05/02 03:14:35;;;;;;;16.80;10.00;;;;;;;-145.18;100.00;46578.34;4993514;28;20038;-70
2022/05/02 03:17:00;;;;;;;15.53;10.70;;;;;;;-145.18;100.00;46568.59;4992725;28;20268;-70
2022/05/02 03:19:26;;;;;;;15.50;10.17;;;;;;;-145.18;100.00;46578.34;4993047;28;20149;-70
2022/05/02 03:21:52;;;;;;;18.80;10.70;;;;;;;-145.18;100.00;46570.53;4993165;28;20434;-70
2022/05/02 03:24:17;;;;;;;15.53;10.57;;;;;;;-145.18;100.00;46578.34;4992992;28;20063;-70
2022/05/02 03:26:43;;;;;;;17.43;10.90;;;;;;;-145.18;100.00;46570.53;4993054;28;20757;-70
2022/05/02 03:29:08;;;;;;;14.37;10.47;;;;;;;-145.18;100.00;46568.59;4992538;28;20105;-70
2022/05/02 03:31:33;;;;;;;20.00;11.10;;;;;;;-145.18;100.00;46570.53;4992910;28;20042;-70
2022/05/02 03:33:59;;;;;;;16.40;10.70;;;;;;;-145.18;100.00;46570.53;4992438;28;20034;-70
2022/05/02 03:36:24;;;;;;;18.33;11.47;;;;;;;-145.18;100.00;46570.53;4992986;28;20589;-70
2022/05/02 03:38:49;;;;;;;16.60;10.90;;;;;;;-145.18;100.00;46564.69;4992487;28;20034;-70
2022/05/02 03:41:15;;;;;;;15.70;11.17;;;;;;;-145.18;100.00;46570.53;4993008;28;20030;-70
2022/05/02 03:43:42;;;;;;;16.87;10.77;;;;;;;-145.18;100.00;46572.50;4992475;28;20030;-70
2022/05/02 03:46:08;;;;;;;16.63;11.00;;;;;;;-145.18;100.00;46617.41;4992933;28;20066;-70
2022/05/02 03:48:33;;;;;;;18.87;11.83;;;;;;;-145.18;100.00;46617.41;4992499;28;20311;-70
2022/05/02 03:50:58;;;;;;;17.00;10.50;;;;;;;-145.18;100.00;46631.09;4992236;28;20042;-70
2022/05/02 03:53:24;;;;;;;17.77;11.20;;;;;;;-145.18;100.00;46627.19;4992204;28;20471;-70
2022/05/02 03:55:49;;;;;;;18.13;12.10;;;;;;;-145.18;100.00;46633.06;4992507;28;20050;-70
2022/05/02 03:58:15;;;;;;;17.77;11.90;;;;;;;-145.18;100.00;46656.50;4991902;28;20069;-70
2022/05/02 04:00:40;;;;;;;20.03;12.13;;;;;;;-145.18;100.00;46660.41;4992596;28;20129;-69
2022/05/02 04:03:05;;;;;;;15.13;11.47;;;;;;;-145.18;100.00;46633.06;4991125;28;20058;-69
2022/05/02 04:05:31;;;;;;;21.33;12.27;;;;;;;-145.18;100.00;46636.94;4991292;28;20030;-69
2022/05/02 04:07:56;;;;;;;20.23;12.20;;;;;;;-145.18;100.00;46658.44;4993424;28;20052;-69
2022/05/02 04:10:22;;;;;;;15.57;10.63;;;;;;;-145.18;100.00;46633.06;4991057;28;20453;-68
2022/05/02 04:12:47;;;;;;;21.07;11.87;;;;;;;-145.18;100.00;46619.38;4990871;28;20031;-71
2022/05/02 04:15:13;;;;;;;14.80;10.63;;;;;;;-145.18;100.00;46619.38;4990250;28;20045;-69
2022/05/02 04:17:40;;;;;;;18.93;11.30;;;;;;;-145.18;100.00;46621.31;4992097;28;20030;-69
2022/05/02 04:20:07;;;;;;;21.10;11.47;;;;;;;-145.18;100.00;46617.41;4992108;28;20550;-69
2022/05/02 04:22:33;;;;;;;19.37;11.03;;;;;;;-145.18;100.00;46574.44;4991829;28;20260;-70
2022/05/02 04:24:58;;;;;;;15.00;10.87;;;;;;;-145.18;100.00;46572.50;4991865;28;20370;-70
2022/05/02 04:27:24;;;;;;;17.50;10.50;;;;;;;-145.18;100.00;46574.44;5000179;28;20395;-70
2022/05/02 04:29:49;;;;;;;16.50;11.00;;;;;;;-145.18;100.00;46572.50;5011531;28;20030;-70
2022/05/02 04:32:14;;;;;;;16.83;10.63;;;;;;;-145.18;100.00;46570.53;5010755;28;20033;-70
2022/05/02 04:34:40;;;;;;;16.70;10.70;;;;;;;-145.18;100.00;46564.69;5010919;28;20060;-72
2022/05/02 04:37:07;;;;;;;13.57;10.43;;;;;;;-145.18;100.00;46570.53;5011134;28;20479;-72
2022/05/02 04:39:32;;;;;;;17.93;11.07;;;;;;;-145.18;100.00;46566.63;5010948;28;20037;-72
2022/05/02 04:41:58;;;;;;;15.90;10.70;;;;;;;-145.18;100.00;46572.50;5011329;28;20274;-72
2022/05/02 04:44:23;;;;;;;16.43;11.47;;;;;;;-145.18;100.00;46566.63;5010230;28;20050;-72
2022/05/02 04:46:49;;;;;;;20.77;10.83;;;;;;;-145.18;100.00;46562.72;5011458;28;20475;-72
2022/05/02 04:49:14;;;;;;;15.03;10.67;;;;;;;-145.18;100.00;46572.50;5009542;28;20042;-72
2022/05/02 04:51:40;;;;;;;20.60;11.93;;;;;;;-145.18;100.00;46572.50;5004979;28;20345;-72
2022/05/02 04:54:06;;;;;;;17.87;11.70;;;;;;;-145.18;100.00;46572.50;4971722;28;20034;-72
2022/05/02 04:56:31;;;;;;;16.60;12.17;;;;;;;-145.18;100.00;46576.41;4990001;28;20042;-72
2022/05/02 04:58:56;;;;;;;20.97;11.57;;;;;;;-145.18;100.00;46572.50;4989204;28;20442;-72
2022/05/02 05:01:22;;;;;;;19.43;12.73;;;;;;;-145.18;100.00;46572.50;4989800;28;20045;-72
2022/05/02 05:03:47;;;;;;;16.63;11.83;;;;;;;-145.18;100.00;46568.59;4989035;28;20057;-72
2022/05/02 05:06:13;;;;;;;18.60;11.97;;;;;;;-145.18;100.00;46572.50;5001875;28;20177;-72
2022/05/02 05:08:39;;;;;;;19.50;13.33;;;;;;;-145.18;100.00;46574.44;5000513;28;20034;-70
2022/05/02 05:11:31;;;;;;;17.60;13.00;;;;;;;-145.18;100.00;46572.50;4990080;28;20038;-70
2022/05/02 05:17:37;;;;;;;21.10;12.10;;;;;;;-145.18;100.00;46556.88;4990582;28;20605;-70
2022/05/02 05:20:23;;;;;;;22.83;12.70;;;;;;;-145.18;100.00;46554.91;4994479;28;20282;-72
2022/05/02 05:22:56;;;;;;;19.20;11.50;;;;;;;-145.18;100.00;46549.06;5010015;28;20287;-70
2022/05/02 05:25:33;;;;;;;16.70;11.67;;;;;;;-145.18;100.00;46554.91;5007915;28;20592;-70
2022/05/02 05:28:18;;;;;;;20.47;12.93;;;;;;;-145.18;100.00;46560.78;5009764;28;20263;-70
2022/05/02 05:30:46;;;;;;;17.20;12.93;;;;;;;-145.18;100.00;46551.00;5002129;28;20279;-70
2022/05/02 05:33:32;;;;;;;18.20;13.03;;;;;;;-145.18;100.00;46552.97;5006507;28;20283;-70
2022/05/02 05:36:12;;;;;;;19.00;13.00;;;;;;;-145.18;100.00;46556.88;4990855;28;20296;-70
2022/05/02 05:39:01;;;;;;;24.23;14.47;;;;;;;-145.18;100.00;46558.81;4990435;28;20529;-70
2022/05/02 05:41:59;;;;;;;18.80;13.73;;;;;;;-145.18;100.00;46558.81;4990878;28;20264;-70
2022/05/02 05:44:52;;;;;;;18.80;13.80;;;;;;;-145.18;100.00;46570.53;4990326;28;20256;-72
2022/05/02 05:47:29;;;;;;;20.70;12.70;;;;;;;-145.18;100.00;46568.59;4990394;28;20264;-70
2022/05/02 05:50:22;;;;;;;21.13;13.13;;;;;;;-145.18;100.00;46574.44;4997782;28;20282;-70
2022/05/02 05:53:09;;;;;;;24.57;15.03;;;;;;;-145.18;100.00;46572.50;5000084;28;20291;-69
2022/05/02 05:56:15;;;;;;;21.17;13.17;;;;;;;-145.18;100.00;46580.31;4995002;28;20295;-70
2022/05/02 05:59:09;;;;;;;18.27;13.67;;;;;;;-145.18;100.00;46582.25;4979847;28;20272;-70
2022/05/02 06:01:58;;;;;;;18.27;13.13;;;;;;;-145.18;100.00;46578.34;4973048;28;20760;-69
2022/05/02 06:04:26;;;;;;;25.00;13.33;;;;;;;-145.18;100.00;46593.97;4984332;28;20291;-69
2022/05/02 06:06:53;;;;;;;18.40;13.60;;;;;;;-145.18;100.00;46593.97;5009476;28;20283;-70
2022/05/02 06:09:20;;;;;;;17.63;12.73;;;;;;;-145.18;100.00;46584.22;5009344;28;20271;-70
2022/05/02 06:11:46;;;;;;;24.83;14.10;;;;;;;-145.18;100.00;46592.03;5008879;28;20331;-70
2022/05/02 06:14:13;;;;;;;24.80;13.57;;;;;;;-145.18;100.00;46586.16;5008694;28;20677;-70
2022/05/02 06:19:28;;;;;;;19.10;13.60;;;;;;;-145.18;100.00;46592.03;5009637;28;20325;-70
2022/05/02 06:21:55;;;;;;;23.37;13.67;;;;;;;-145.18;100.00;46592.03;5012221;28;20263;-70
2022/05/02 06:24:26;;;;;;;20.20;13.43;;;;;;;-145.18;100.00;46597.88;5013351;28;20398;-70
2022/05/02 06:26:51;;;;;;;23.97;13.60;;;;;;;-145.18;100.00;46593.97;5013749;28;20695;-70
2022/05/02 06:29:20;;;;;;;30.47;14.67;;;;;;;-145.18;100.00;46595.94;5012856;28;20774;-70
2022/05/02 06:31:50;;;;;;;24.17;13.93;;;;;;;-145.18;100.00;46595.94;5013700;28;20038;-70
2022/05/02 06:34:20;;;;;;;21.50;13.33;;;;;;;-145.18;100.00;46597.88;5012715;28;20360;-70
2022/05/02 06:36:59;;;;;;;20.53;14.37;;;;;;;-145.18;100.00;46605.69;5006356;28;20738;-70
2022/05/02 06:39:39;;;;;;;21.77;13.90;;;;;;;-145.18;100.00;46595.94;4992957;28;20302;-70
2022/05/02 06:42:19;;;;;;;26.90;13.83;;;;;;;-145.18;100.00;46601.78;4992129;28;20355;-70
2022/05/02 06:44:56;;;;;;;24.27;15.10;;;;;;;-145.18;100.00;46607.66;4992468;28;20272;-70
2022/05/02 06:47:28;;;;;;;22.73;13.83;;;;;;;-145.18;100.00;46633.06;4993833;28;20334;-70
2022/05/02 06:49:57;;;;;;;21.10;13.23;;;;;;;-145.18;100.00;46676.03;4993389;28;20322;-70
2022/05/02 06:52:32;;;;;;;26.23;13.47;;;;;;;-145.18;100.00;46679.94;4993514;28;20291;-70
2022/05/02 06:55:16;;;;;;;20.92;12.68;;;;;;;-145.18;100.00;46668.22;4993255;28;20268;-70
2022/05/02 06:57:49;;;;;;;20.50;13.30;;;;;;;-145.18;100.00;46672.13;4993300;28;20031;-70
2022/05/02 07:00:17;;;;;;;25.57;14.37;;;;;;;-145.18;100.00;46687.75;4993456;28;20264;-70
2022/05/02 07:03:05;;;;;;;18.33;13.83;;;;;;;-145.18;100.00;46697.50;4993158;28;20295;-70
2022/05/02 07:05:36;;;;;;;22.33;13.60;;;;;;;-145.18;100.00;46685.78;4993234;28;20780;-70
2022/05/02 07:08:04;;;;;;;23.53;13.67;;;;;;;-145.18;100.00;46693.59;4993037;28;20402;-70
2022/05/02 07:10:37;;;;;;;20.97;12.30;;;;;;;-145.18;100.00;46705.31;4993250;28;20773;-70
2022/05/02 07:13:09;;;;;;;16.90;12.73;;;;;;;-145.18;100.00;46699.47;4992821;28;20314;-70
2022/05/02 07:15:45;;;;;;;19.83;12.57;;;;;;;-145.18;100.00;46730.72;4993394;28;20264;-70
2022/05/02 07:18:27;;;;;;;23.98;13.35;;;;;;;-145.18;100.00;46676.03;4992554;28;20302;-71
2022/05/02 07:21:24;;;;;;;19.33;12.00;;;;;;;-145.18;100.00;46693.59;4993210;28;20387;-70
2022/05/02 07:24:14;;;;;;;19.95;13.07;;;;;;;-145.18;100.00;46728.75;4992732;28;20680;-70
2022/05/02 07:26:41;;;;;;;20.10;12.70;;;;;;;-145.18;100.00;46742.44;4993185;28;20546;-70
2022/05/02 07:29:08;;;;;;;19.93;12.53;;;;;;;-145.18;100.00;46738.53;4992202;28;20359;-71
2022/05/02 07:31:34;;;;;;;17.53;12.47;;;;;;;-145.18;100.00;46799.09;4992505;28;20354;-71
2022/05/02 07:34:01;;;;;;;33.47;14.33;;;;;;;-145.18;100.00;47129.22;4991619;28;20363;-71
2022/05/02 07:36:28;;;;;;;20.87;13.33;;;;;;;-145.18;100.00;47199.56;4992871;28;20268;-71
2022/05/02 07:39:05;;;;;;;21.47;13.60;;;;;;;-145.18;100.00;47000.28;4992522;28;20280;-70
2022/05/02 07:41:32;;;;;;;20.03;12.83;;;;;;;-145.18;100.00;46972.94;4992835;28;20264;-71
2022/05/02 07:44:08;;;;;;;19.77;13.63;;;;;;;-145.18;100.00;46697.50;4992379;28;20771;-71
2022/05/02 07:46:39;;;;;;;20.40;13.37;;;;;;;-145.18;100.00;47129.22;4992790;28;20268;-70
2022/05/02 07:49:09;;;;;;;18.60;12.30;;;;;;;-145.18;100.00;47262.06;4992191;28;20291;-71
2022/05/02 07:51:42;;;;;;;21.00;12.50;;;;;;;-145.18;100.00;47287.47;4992421;28;20375;-70
2022/05/02 07:54:14;;;;;;;20.93;13.07;;;;;;;-145.18;100.00;47353.88;4992122;28;20379;-70
2022/05/02 07:56:41;;;;;;;18.87;12.97;;;;;;;-145.18;100.00;47334.34;4992826;28;20264;-71
2022/05/02 07:59:07;;;;;;;15.93;12.13;;;;;;;-145.18;100.00;47273.78;4974579;28;20431;-71
2022/05/02 08:01:32;;;;;;;20.50;12.23;;;;;;;-145.18;100.00;47291.38;4992455;28;20521;-71
2022/05/02 08:03:58;;;;;;;21.67;12.77;;;;;;;-145.18;100.00;47299.19;4991735;28;20050;-70
2022/05/02 08:06:44;;;;;;;19.50;11.77;;;;;;;-145.18;100.00;47281.59;4992433;28;20566;-70
2022/05/02 08:09:33;;;;;;;17.95;12.40;;;;;;;-145.18;100.00;47228.84;4991620;28;20057;-71
2022/05/02 08:12:37;;;;;;;19.67;12.07;;;;;;;-145.18;100.00;47234.72;4992140;28;20030;-71
2022/05/02 08:15:12;;;;;;;20.37;11.73;;;;;;;-145.18;100.00;47236.66;4911950;29;20040;-71
2022/05/02 08:17:47;;;;;;;19.20;11.15;;;;;;;-145.18;100.00;47256.22;4982402;28;20035;-71
2022/05/02 08:20:34;;;;;;;17.35;11.35;;;;;;;-145.18;100.00;47254.25;4991771;28;20018;-71
2022/05/02 08:29:48;;;;;;;15.63;10.67;;;;;;;-145.18;100.00;47246.44;4991449;28;20129;-71
2022/05/02 08:32:22;;;;;;;17.77;10.93;;;;;;;-145.18;100.00;47215.19;4991830;28;20030;-71
2022/05/02 08:35:02;;;;;;;16.90;11.60;;;;;;;-145.18;100.00;47207.38;4973436;28;20049;-71
2022/05/02 08:37:56;;;;;;;16.00;9.73;;;;;;;-145.18;100.00;47230.81;4991811;28;20027;-71
2022/05/02 08:40:38;;;;;;;19.63;10.00;;;;;;;-145.18;100.00;47207.38;4954128;28;20050;-71
2022/05/02 08:43:27;;;;;;;12.97;9.67;;;;;;;-145.18;100.00;47197.59;4990840;28;20034;-71
2022/05/02 08:46:20;;;;;;;18.33;10.37;;;;;;;-145.18;100.00;47195.66;4991010;28;20511;-71
2022/05/02 08:52:47;;;;;;;13.97;8.13;;;;;;;-145.18;100.00;47189.78;4991019;28;20044;-71
2022/05/02 08:55:34;;;;;;;13.33;8.13;;;;;;;-145.18;100.00;47189.78;4974876;28;20549;-71
2022/05/02 08:58:37;;;;;;;13.47;9.37;;;;;;;-145.18;100.00;47197.59;4990118;28;20714;-71
2022/05/02 09:01:40;;;;;;;16.43;9.47;;;;;;;-145.18;100.00;47174.16;4990354;28;20034;-71
2022/05/02 09:04:37;;;;;;;13.30;8.93;;;;;;;-145.18;100.00;47178.06;4989512;28;20105;-71
2022/05/02 09:07:27;;;;;;;15.63;8.40;;;;;;;-145.18;100.00;47187.84;4990128;28;20132;-71
2022/05/02 09:10:29;;;;;;;13.47;7.57;;;;;;;-145.18;100.00;47178.06;4999363;28;20478;-71
2022/05/02 09:13:27;;;;;;;10.33;6.70;;;;;;;-145.18;100.00;47178.06;5010103;28;20649;-71
2022/05/02 09:16:01;;;;;;;9.73;6.00;;;;;;;-145.18;100.00;47191.75;5010688;28;20018;-71
2022/05/02 09:19:06;;;;;;;12.00;6.60;;;;;;;-145.18;100.00;47191.75;5009953;28;20034;-71
2022/05/02 09:21:41;;;;;;;10.63;6.73;;;;;;;-145.18;100.00;47170.25;5010264;28;20018;-71
2022/05/02 09:24:31;;;;;;;10.43;7.00;;;;;;;-145.18;100.00;47164.38;5009454;28;20038;-71
2022/05/02 09:27:05;;;;;;;10.03;7.20;;;;;;;-145.18;100.00;47152.66;5009877;28;20053;-71
2022/05/02 09:29:56;;;;;;;13.73;7.70;;;;;;;-145.18;100.00;47148.75;5010113;28;20060;-71
2022/05/02 09:32:33;;;;;;;13.90;8.20;;;;;;;-145.18;100.00;47152.66;5009899;28;20059;-71
2022/05/02 09:35:11;;;;;;;10.20;6.30;;;;;;;-145.18;100.00;47133.13;5009308;28;20030;-71
2022/05/02 09:37:40;;;;;;;9.77;6.73;;;;;;;-145.18;100.00;47140.94;5010574;28;20022;-71
2022/05/02 09:40:16;;;;;;;13.07;6.63;;;;;;;-145.18;100.00;47139.00;5009531;28;20490;-71
2022/05/02 09:42:57;;;;;;;8.67;6.53;;;;;;;-145.18;100.00;47121.41;5010178;28;20095;-71
2022/05/02 09:51:51;;;;;;;9.90;7.40;;;;;;;-145.18;100.00;47117.50;4990413;28;20053;-71
2022/05/02 09:57:18;;;;;;;9.33;6.40;;;;;;;-145.18;100.00;47117.50;5011680;28;20045;-71
2022/05/02 09:59:49;;;;;;;9.70;7.00;;;;;;;-145.18;100.00;47094.06;5015828;28;20041;-72
2022/05/02 10:02:21;;;;;;;9.80;6.40;;;;;;;-145.18;100.00;47096.00;5016168;28;20065;-71
2022/05/02 10:05:07;;;;;;;10.60;7.47;;;;;;;-145.18;100.00;47123.38;5015779;28;20058;-71
2022/05/02 10:08:14;;;;;;;8.63;7.35;;;;;;;-145.18;100.00;47109.69;5015964;28;20030;-71
2022/05/02 10:10:49;;;;;;;10.90;7.60;;;;;;;-145.18;100.00;47113.59;4974418;28;20034;-71
2022/05/02 10:13:17;;;;;;;11.32;7.15;;;;;;;-145.18;100.00;47117.50;4974411;28;20057;-71
2022/05/02 10:15:58;;;;;;;10.37;6.10;;;;;;;-145.18;100.00;47109.69;4997679;28;20081;-71
2022/05/02 10:18:43;;;;;;;7.23;6.07;;;;;;;-145.18;100.00;47090.16;5016316;28;20087;-72
2022/05/02 10:21:23;;;;;;;10.73;7.33;;;;;;;-145.18;100.00;47086.25;5015916;28;20043;-71
2022/05/02 10:24:15;;;;;;;15.40;7.20;;;;;;;-145.18;100.00;47092.09;5015865;28;20093;-71
2022/05/02 10:26:46;;;;;;;12.27;6.30;;;;;;;-145.18;100.00;47097.97;4998112;28;20038;-71
2022/05/02 10:29:37;;;;;;;11.30;6.37;;;;;;;-145.18;100.00;47099.91;5015710;28;20033;-71
2022/05/02 10:32:10;;;;;;;8.90;6.53;;;;;;;-145.18;100.00;47072.56;4998424;28;20409;-71
2022/05/02 10:34:37;;;;;;;11.47;7.07;;;;;;;-145.18;100.00;47088.19;5015422;28;20077;-72
2022/05/02 10:37:07;;;;;;;10.20;6.40;;;;;;;-145.18;100.00;47097.97;5015804;28;20045;-72
2022/05/02 10:39:47;;;;;;;8.20;6.53;;;;;;;-145.18;100.00;47086.25;5015820;28;20029;-71
2022/05/02 10:42:16;;;;;;;10.50;6.63;;;;;;;-145.18;100.00;47137.03;5015812;28;20034;-71
2022/05/02 10:45:03;;;;;;;9.33;6.43;;;;;;;-145.18;100.00;47113.59;5015549;28;20061;-71
2022/05/02 10:47:49;;;;;;;11.10;6.87;;;;;;;-145.18;100.00;47127.28;5015926;28;20113;-71
2022/05/02 10:50:19;;;;;;;9.67;6.00;;;;;;;-145.18;100.00;47121.41;5012809;28;20041;-71
2022/05/02 10:53:00;;;;;;;9.07;6.73;;;;;;;-145.18;100.00;47111.66;4996302;28;20052;-71
2022/05/02 10:55:30;;;;;;;10.83;6.10;;;;;;;-145.18;100.00;47135.09;4995641;28;20092;-71
2022/05/02 10:58:10;;;;;;;9.63;6.47;;;;;;;-145.18;100.00;47113.59;4994757;28;20038;-71
2022/05/02 11:00:51;;;;;;;15.07;7.10;;;;;;;-145.18;100.00;47090.16;5005899;28;20034;-71
2022/05/02 11:03:50;;;;;;;11.87;6.90;;;;;;;-145.18;100.00;47078.44;5015433;28;20446;-71
2022/05/02 11:06:40;;;;;;;8.53;6.17;;;;;;;-145.18;100.00;47070.63;5015749;28;20537;-71
2022/05/02 11:09:12;;;;;;;8.33;6.50;;;;;;;-145.18;100.00;47062.81;5011143;28;20041;-71
2022/05/02 11:11:50;;;;;;;8.97;6.53;;;;;;;-145.18;100.00;47082.34;5012496;28;20038;-72
2022/05/02 11:14:48;;;;;;;10.53;6.37;;;;;;;-145.18;100.00;47066.72;5011790;28;20104;-71
2022/05/02 11:17:49;;;;;;;11.63;6.70;;;;;;;-145.18;100.00;47072.56;5012705;28;20530;-71
2022/05/02 11:20:43;;;;;;;11.00;7.77;;;;;;;-145.18;100.00;47150.72;5011504;28;20080;-71
2022/05/02 11:23:28;;;;;;;11.43;7.33;;;;;;;-145.18;100.00;47129.22;5012523;28;20061;-71
2022/05/02 11:26:02;;;;;;;17.53;7.20;;;;;;;-145.18;100.00;47146.81;5012357;28;20104;-71
2022/05/02 11:29:05;;;;;;;9.73;7.43;;;;;;;-145.18;100.00;47092.09;5012128;28;20029;-71
2022/05/02 11:31:39;;;;;;;12.83;6.67;;;;;;;-145.18;100.00;47058.91;4999469;28;20045;-71
2022/05/02 11:34:29;;;;;;;9.57;6.80;;;;;;;-145.18;100.00;47064.75;5011797;28;20061;-71
2022/05/02 11:36:58;;;;;;;11.10;6.87;;;;;;;-145.18;100.00;47051.09;4994676;28;20040;-72
2022/05/02 11:39:52;;;;;;;9.80;7.33;;;;;;;-145.18;100.00;47047.19;5011657;28;20036;-71
2022/05/02 11:42:21;;;;;;;10.70;6.77;;;;;;;-145.18;100.00;47031.53;5011419;28;20305;-71
2022/05/02 11:45:02;;;;;;;11.53;7.10;;;;;;;-145.18;100.00;47045.22;5011714;28;20038;-71
2022/05/02 11:47:39;;;;;;;11.37;7.77;;;;;;;-145.18;100.00;47064.75;4995060;28;20113;-71
2022/05/02 11:50:07;;;;;;;10.80;7.33;;;;;;;-145.18;100.00;47068.66;5011310;28;20041;-71
2022/05/02 11:52:37;;;;;;;12.10;7.10;;;;;;;-145.18;100.00;47055.00;5012244;28;20062;-71
2022/05/02 11:55:05;;;;;;;13.73;8.27;;;;;;;-145.18;100.00;47027.63;5011503;28;20034;-71
2022/05/02 11:57:38;;;;;;;11.63;7.47;;;;;;;-145.18;100.00;47017.88;5011654;28;20402;-72
2022/05/02 12:00:12;;;;;;;9.30;6.40;;;;;;;-145.18;100.00;47023.72;5010865;28;20040;-71